createdAt,value
2019-03-12T00:00:53.814Z,54.70
2019-03-12T00:05:29.565Z,54.30
2019-03-12T00:10:05.517Z,55.60
2019-03-12T00:14:41.287Z,55.20
2019-03-12T00:19:17.037Z,54.80
2019-03-12T00:23:52.801Z,55.40
2019-03-12T00:28:28.562Z,54.40
2019-03-12T00:33:04.333Z,54.10
2019-03-12T00:37:40.089Z,55.70
2019-03-12T00:42:15.936Z,56.00
2019-03-12T00:46:51.696Z,55.90
2019-03-12T00:51:27.517Z,54.90
2019-03-12T00:56:03.277Z,55.90
2019-03-12T01:00:39.043Z,53.20
2019-03-12T01:05:14.889Z,53.20
2019-03-12T01:09:50.652Z,53.40
2019-03-12T01:14:26.405Z,55.10
2019-03-12T01:19:02.160Z,54.30
2019-03-12T01:23:37.908Z,54.80
2019-03-12T01:28:13.691Z,53.30
2019-03-12T01:32:49.538Z,53.20
2019-03-12T01:37:25.316Z,52.80
2019-03-12T01:42:02.771Z,52.70
2019-03-12T01:46:36.640Z,52.90
2019-03-12T01:51:12.389Z,53.30
2019-03-12T01:55:48.155Z,53.00
2019-03-12T02:00:23.897Z,53.70
2019-03-12T02:04:59.685Z,52.70
2019-03-12T02:09:35.433Z,53.60
2019-03-12T02:14:24.970Z,54.50
2019-03-12T02:19:00.705Z,54.20
2019-03-12T02:23:36.469Z,54.20
2019-03-12T02:28:12.213Z,54.50
2019-03-12T02:32:48.659Z,55.70
2019-03-12T02:37:24.493Z,54.80
2019-03-12T02:42:00.260Z,54.40
2019-03-12T02:46:35.997Z,53.40
2019-03-12T02:51:11.769Z,53.70
2019-03-12T02:55:47.531Z,52.60
2019-03-12T03:00:23.670Z,53.40
2019-03-12T03:04:59.452Z,54.40
2019-03-12T03:09:35.262Z,53.10
2019-03-12T03:14:34.469Z,53.30
2019-03-12T03:19:10.238Z,53.20
2019-03-12T03:23:45.985Z,56.70
2019-03-12T03:28:21.765Z,57.70
2019-03-12T03:32:57.862Z,58.20
2019-03-12T03:37:33.697Z,58.50
2019-03-12T03:42:09.446Z,58.30
2019-03-12T03:46:45.202Z,60.50
2019-03-12T03:51:20.937Z,61.20
2019-03-12T03:55:56.706Z,61.10
2019-03-12T04:00:32.454Z,62.30
2019-03-12T04:05:08.407Z,61.60
2019-03-12T04:09:44.155Z,62.30
2019-03-12T04:14:18.548Z,62.20
2019-03-12T04:18:54.293Z,64.30
2019-03-12T04:23:30.049Z,65.00
2019-03-12T04:28:05.792Z,65.10
2019-03-12T04:32:41.638Z,62.40
2019-03-12T04:37:17.414Z,61.60
2019-03-12T04:41:53.177Z,62.90
2019-03-12T04:46:28.965Z,64.00
2019-03-12T04:51:04.749Z,64.50
2019-03-12T04:55:40.502Z,63.40
2019-03-12T05:00:16.911Z,64.60
2019-03-12T05:04:52.655Z,65.40
2019-03-12T05:09:28.448Z,65.50
2019-03-12T05:14:39.376Z,65.40
2019-03-12T05:19:15.142Z,64.60
2019-03-12T05:23:50.946Z,66.00
2019-03-12T05:28:27.212Z,65.10
2019-03-12T05:33:03.043Z,64.40
2019-03-12T05:37:38.804Z,64.80
2019-03-12T05:42:14.570Z,66.10
2019-03-12T05:46:50.328Z,67.10
2019-03-12T05:51:26.092Z,68.00
2019-03-12T05:56:01.845Z,67.90
2019-03-12T06:00:37.597Z,69.00
2019-03-12T06:05:13.544Z,68.40
2019-03-12T06:09:49.306Z,68.40
2019-03-12T06:14:25.274Z,69.00
2019-03-12T06:19:01.113Z,69.90
2019-03-12T06:23:37.009Z,70.50
2019-03-12T06:28:12.783Z,70.30
2019-03-12T06:33:10.502Z,69.60
2019-03-12T06:37:51.508Z,69.70
2019-03-12T06:42:40.840Z,70.00
2019-03-12T06:47:47.487Z,70.10
2019-03-12T06:52:38.036Z,69.80
2019-03-12T06:57:35.532Z,70.00
2019-03-12T07:02:23.522Z,70.20
2019-03-12T07:07:24.066Z,70.70
2019-03-12T07:12:27.637Z,71.30
2019-03-12T07:17:20.289Z,71.50
2019-03-12T07:22:04.482Z,71.50
2019-03-12T07:31:48.512Z,72.00
2019-03-12T07:36:46.287Z,71.80
2019-03-12T07:41:53.238Z,72.20
2019-03-12T07:46:42.385Z,72.10
2019-03-12T07:51:37.097Z,72.00
2019-03-12T07:56:26.500Z,70.30
2019-03-12T08:01:25.017Z,71.90
2019-03-12T08:06:18.292Z,71.30
2019-03-12T08:11:13.017Z,71.00
2019-03-12T08:16:10.569Z,70.70
2019-03-12T08:21:08.100Z,70.10
2019-03-12T08:26:02.785Z,68.80
2019-03-12T08:30:57.496Z,68.40
2019-03-12T08:35:40.761Z,66.80
2019-03-12T08:40:25.990Z,66.60
2019-03-12T08:45:20.724Z,67.20
2019-03-12T08:50:21.641Z,66.20
2019-03-12T08:55:04.439Z,66.60
2019-03-12T08:59:55.752Z,66.80
2019-03-12T09:04:41.340Z,65.20
2019-03-12T09:09:29.876Z,65.70
2019-03-12T09:14:33.362Z,67.10
2019-03-12T09:19:31.076Z,66.50
2019-03-12T09:24:24.211Z,66.50
2019-03-12T09:29:22.004Z,64.40
2019-03-12T09:34:01.449Z,63.70
2019-03-12T09:38:51.171Z,62.50
2019-03-12T09:43:44.345Z,64.30
2019-03-12T09:48:41.433Z,63.90
2019-03-12T09:53:31.745Z,63.60
2019-03-12T09:58:38.649Z,63.30
2019-03-12T10:03:42.200Z,61.00
2019-03-12T10:08:38.289Z,60.50
2019-03-12T10:13:35.849Z,56.80
2019-03-12T10:18:25.629Z,56.10
2019-03-12T10:23:20.418Z,56.80
2019-03-12T10:28:15.176Z,56.80
2019-03-12T10:33:04.518Z,55.30
2019-03-12T10:37:59.225Z,53.40
2019-03-12T10:42:47.226Z,56.20
2019-03-12T10:47:24.011Z,56.60
2019-03-12T10:51:59.801Z,56.70
2019-03-12T10:56:35.558Z,54.70
2019-03-12T11:01:11.536Z,54.20
2019-03-12T11:05:47.272Z,52.00
2019-03-12T11:10:23.056Z,50.70
2019-03-12T11:14:58.886Z,51.20
2019-03-12T11:19:34.660Z,50.50
2019-03-12T11:24:10.413Z,51.00
2019-03-12T11:28:46.207Z,47.50
2019-03-12T11:33:22.022Z,47.90
2019-03-12T11:37:57.816Z,47.50
2019-03-12T11:42:33.627Z,47.80
2019-03-12T11:47:09.470Z,47.60
2019-03-12T11:51:45.217Z,47.50
2019-03-12T11:56:21.021Z,49.70
2019-03-12T12:00:59.143Z,48.10
2019-03-12T12:05:35.087Z,49.40
2019-03-12T12:10:12.165Z,46.40
2019-03-12T12:14:48.118Z,47.50
2019-03-12T12:19:23.937Z,46.80
2019-03-12T12:23:59.704Z,44.50
2019-03-12T12:28:35.440Z,43.40
2019-03-12T12:33:11.212Z,42.40
2019-03-12T12:37:46.970Z,41.20
2019-03-12T12:42:22.809Z,41.20
2019-03-12T12:46:58.658Z,41.10
2019-03-12T12:51:34.515Z,43.20
2019-03-12T12:56:10.437Z,44.60
2019-03-12T13:00:46.265Z,41.90
2019-03-12T13:05:22.111Z,43.00
2019-03-12T13:09:58.050Z,42.90
2019-03-12T13:14:41.372Z,43.20
2019-03-12T13:19:11.410Z,42.90
2019-03-12T13:23:47.176Z,42.20
2019-03-12T13:28:23.017Z,40.30
2019-03-12T13:32:58.769Z,41.10
2019-03-12T13:37:34.873Z,42.20
2019-03-12T13:42:10.517Z,43.00
2019-03-12T13:46:46.411Z,42.20
2019-03-12T13:51:22.201Z,41.50
2019-03-12T13:55:58.029Z,43.30
2019-03-12T14:00:33.863Z,42.80
2019-03-12T14:05:09.867Z,42.30
2019-03-12T14:09:45.621Z,42.40
2019-03-12T14:14:21.403Z,44.60
2019-03-12T14:18:58.053Z,43.60
2019-03-12T14:23:39.312Z,42.50
2019-03-12T14:28:15.069Z,44.20
2019-03-12T14:32:50.855Z,42.80
2019-03-12T14:37:26.600Z,42.60
2019-03-12T14:42:02.368Z,42.40
2019-03-12T14:46:38.158Z,44.40
2019-03-12T14:51:26.345Z,44.20
2019-03-12T14:56:02.105Z,44.30
2019-03-12T15:00:37.869Z,44.60
2019-03-12T15:05:13.646Z,42.20
2019-03-12T15:09:49.417Z,42.80
2019-03-12T15:14:25.201Z,42.50
2019-03-12T15:19:00.969Z,42.30
2019-03-12T15:23:36.798Z,41.90
2019-03-12T15:28:12.582Z,42.70
2019-03-12T15:32:48.346Z,43.00
2019-03-12T15:37:24.120Z,42.50
2019-03-12T15:41:59.877Z,42.60
2019-03-12T15:46:35.659Z,43.70
2019-03-12T15:51:11.417Z,41.10
2019-03-12T15:55:47.208Z,42.40
2019-03-12T16:00:22.966Z,41.20
2019-03-12T16:04:58.748Z,40.90
2019-03-12T16:09:34.518Z,40.20
2019-03-12T16:14:10.288Z,40.30
2019-03-12T16:18:46.045Z,41.80
2019-03-12T16:23:21.817Z,40.20
2019-03-12T16:27:57.566Z,41.40
2019-03-12T16:32:35.303Z,40.90
2019-03-12T16:37:10.901Z,42.10
2019-03-12T16:41:46.660Z,41.20
2019-03-12T16:46:22.422Z,40.90
2019-03-12T16:50:58.196Z,42.30
2019-03-12T17:00:10.841Z,42.10
2019-03-12T17:04:46.633Z,42.20
2019-03-12T17:09:22.400Z,42.50
2019-03-12T17:13:58.181Z,42.20
2019-03-12T17:18:33.962Z,45.20
2019-03-12T17:23:09.808Z,45.80
2019-03-12T17:27:45.597Z,46.40
2019-03-12T17:32:21.394Z,48.10
2019-03-12T17:36:57.156Z,48.70
2019-03-12T17:41:32.924Z,47.80
2019-03-12T17:46:08.696Z,45.80
2019-03-12T17:50:44.460Z,46.70
2019-03-12T17:55:20.236Z,46.60
2019-03-12T17:59:56.082Z,48.40
2019-03-12T18:04:31.848Z,44.50
2019-03-12T18:09:08.937Z,44.90
2019-03-12T18:13:44.790Z,44.60
2019-03-12T18:18:20.563Z,45.30
2019-03-12T18:22:56.418Z,45.80
2019-03-12T18:27:32.169Z,46.20
2019-03-12T18:32:07.933Z,44.70
2019-03-12T18:36:43.698Z,43.90
2019-03-12T18:41:19.467Z,44.40
2019-03-12T18:45:55.225Z,45.30
2019-03-12T18:50:31.014Z,43.70
2019-03-12T18:55:07.556Z,44.40
2019-03-12T18:59:43.330Z,44.60
2019-03-12T19:04:19.064Z,44.40
2019-03-12T19:08:54.838Z,44.00
2019-03-12T19:13:30.597Z,43.40
2019-03-12T19:18:06.763Z,44.20
2019-03-12T19:22:42.538Z,44.20
2019-03-12T19:27:19.016Z,43.20
2019-03-12T19:32:04.191Z,43.40
2019-03-12T19:36:40.025Z,44.60
2019-03-12T19:41:15.868Z,44.40
2019-03-12T19:45:51.662Z,43.40
2019-03-12T19:50:27.444Z,43.90
2019-03-12T19:55:03.257Z,44.00
2019-03-12T19:59:39.128Z,44.10
2019-03-12T20:04:14.988Z,43.50
2019-03-12T20:08:56.040Z,43.40
2019-03-12T20:13:30.001Z,44.30
2019-03-12T20:18:52.898Z,43.70
2019-03-12T20:29:02.060Z,44.30
2019-03-12T20:39:05.909Z,43.20
2019-03-12T20:49:10.887Z,43.40
2019-03-12T20:54:05.843Z,43.20
2019-03-12T20:59:28.635Z,43.30
2019-03-12T21:09:21.470Z,43.50
2019-03-12T21:14:35.539Z,44.10
2019-03-12T21:24:26.419Z,43.70
2019-03-12T21:29:45.065Z,44.10
2019-03-12T21:34:20.858Z,42.60
2019-03-12T21:38:56.679Z,43.60
2019-03-12T21:43:32.845Z,43.60
2019-03-12T21:48:08.969Z,43.70
2019-03-12T21:52:45.413Z,43.40
2019-03-12T21:57:21.248Z,44.10
2019-03-12T22:01:57.029Z,44.00
2019-03-12T22:06:32.869Z,44.70
2019-03-12T22:11:08.629Z,44.30
2019-03-12T22:15:44.486Z,44.40
2019-03-12T22:25:15.421Z,44.60
2019-03-12T22:29:51.203Z,43.20
2019-03-12T22:34:30.039Z,44.30
2019-03-12T22:39:05.536Z,43.80
2019-03-12T22:43:41.307Z,42.30
2019-03-12T22:48:17.064Z,41.00
2019-03-12T22:52:52.817Z,41.70
2019-03-12T22:57:28.568Z,42.30
2019-03-12T23:02:04.667Z,41.40
2019-03-12T23:06:40.511Z,40.80
2019-03-12T23:11:17.045Z,41.20
2019-03-12T23:15:52.792Z,40.10
2019-03-12T23:20:28.569Z,40.00
2019-03-12T23:25:04.345Z,40.30
2019-03-12T23:29:40.112Z,40.00
2019-03-12T23:34:15.870Z,41.10
2019-03-12T23:38:51.631Z,39.80
2019-03-12T23:43:27.381Z,40.30
2019-03-12T23:48:03.165Z,41.40
2019-03-12T23:52:38.911Z,40.20
2019-03-12T23:57:14.673Z,39.70
